sensor_id;sensor_type;location;lat;lon;timestamp;temperature;humidity
3912;DHT22;1971;51.778;10.330;2023-07-24T02:45:23;15.40;99.90
3912;DHT22;1971;51.778;10.330;2023-07-24T02:47:54;15.40;99.90
3912;DHT22;1971;51.778;10.330;2023-07-24T02:50:24;15.50;99.90
3912;DHT22;1971;51.778;10.330;2023-07-24T02:52:54;15.50;99.90
3912;DHT22;1971;51.778;10.330;2023-07-24T02:55:25;15.50;99.90
3912;DHT22;1971;51.778;10.330;2023-07-24T02:57:55;15.40;99.90
3912;DHT22;1971;51.778;10.330;2023-07-24T03:00:28;15.50;99.90
3912;DHT22;1971;51.778;10.330;2023-07-24T03:03:00;15.40;99.90
3912;DHT22;1971;51.778;10.330;2023-07-24T03:05:31;15.50;99.90
3912;DHT22;1971;51.778;10.330;2023-07-24T03:08:01;15.40;99.90
3912;DHT22;1971;51.778;10.330;2023-07-24T03:10:31;15.50;99.90
3912;DHT22;1971;51.778;10.330;2023-07-24T03:13:01;15.60;99.90
3912;DHT22;1971;51.778;10.330;2023-07-24T03:15:34;15.60;99.90
3912;DHT22;1971;51.778;10.330;2023-07-24T03:18:04;15.50;99.90
3912;DHT22;1971;51.778;10.330;2023-07-24T03:20:34;15.50;99.90
3912;DHT22;1971;51.778;10.330;2023-07-24T03:23:05;15.50;99.90
3912;DHT22;1971;51.778;10.330;2023-07-24T03:25:35;15.50;99.90
3912;DHT22;1971;51.778;10.330;2023-07-24T03:28:05;15.50;99.90
3912;DHT22;1971;51.778;10.330;2023-07-24T03:30:38;15.40;99.90
3912;DHT22;1971;51.778;10.330;2023-07-24T03:33:08;15.50;99.90
3912;DHT22;1971;51.778;10.330;2023-07-24T03:35:39;15.50;99.90
3912;DHT22;1971;51.778;10.330;2023-07-24T03:38:09;15.50;99.90
3912;DHT22;1971;51.778;10.330;2023-07-24T03:40:40;15.50;99.90
3912;DHT22;1971;51.778;10.330;2023-07-24T03:43:10;15.50;99.90
3912;DHT22;1971;51.778;10.330;2023-07-24T03:45:43;15.60;99.90
3912;DHT22;1971;51.778;10.330;2023-07-24T03:48:13;15.60;99.90
3912;DHT22;1971;51.778;10.330;2023-07-24T03:50:43;15.60;99.90
3912;DHT22;1971;51.778;10.330;2023-07-24T03:53:14;15.60;99.90
3912;DHT22;1971;51.778;10.330;2023-07-24T03:55:44;15.60;99.90
3912;DHT22;1971;51.778;10.330;2023-07-24T03:58:14;15.60;99.90
3912;DHT22;1971;51.778;10.330;2023-07-24T04:00:47;15.60;99.90
3912;DHT22;1971;51.778;10.330;2023-07-24T04:03:17;15.60;99.90
3912;DHT22;1971;51.778;10.330;2023-07-24T04:05:48;15.60;99.90
3912;DHT22;1971;51.778;10.330;2023-07-24T04:08:18;15.60;99.90
3912;DHT22;1971;51.778;10.330;2023-07-24T04:10:48;15.60;99.90
3912;DHT22;1971;51.778;10.330;2023-07-24T04:13:19;15.60;99.90
3912;DHT22;1971;51.778;10.330;2023-07-24T04:15:52;15.70;99.90
3912;DHT22;1971;51.778;10.330;2023-07-24T04:18:24;15.70;99.90
3912;DHT22;1971;51.778;10.330;2023-07-24T04:20:55;15.70;99.90
3912;DHT22;1971;51.778;10.330;2023-07-24T04:23:26;15.70;99.90
3912;DHT22;1971;51.778;10.330;2023-07-24T04:25:56;15.90;99.90
3912;DHT22;1971;51.778;10.330;2023-07-24T04:28:26;15.90;99.90
3912;DHT22;1971;51.778;10.330;2023-07-24T04:31:02;15.90;99.90
3912;DHT22;1971;51.778;10.330;2023-07-24T04:33:32;15.80;99.90
3912;DHT22;1971;51.778;10.330;2023-07-24T04:36:02;15.70;99.90
3912;DHT22;1971;51.778;10.330;2023-07-24T04:38:32;15.70;99.90
3912;DHT22;1971;51.778;10.330;2023-07-24T04:41:02;15.80;99.90
3912;DHT22;1971;51.778;10.330;2023-07-24T04:43:32;15.80;99.90
3912;DHT22;1971;51.778;10.330;2023-07-24T04:46:05;15.90;99.90
3912;DHT22;1971;51.778;10.330;2023-07-24T04:48:35;15.90;99.90
3912;DHT22;1971;51.778;10.330;2023-07-24T04:51:05;16.00;99.90
3912;DHT22;1971;51.778;10.330;2023-07-24T04:53:35;16.00;99.90
3912;DHT22;1971;51.778;10.330;2023-07-24T04:56:06;16.00;99.90
3912;DHT22;1971;51.778;10.330;2023-07-24T04:58:36;16.10;99.90
3912;DHT22;1971;51.778;10.330;2023-07-24T05:01:08;16.00;99.90
3912;DHT22;1971;51.778;10.330;2023-07-24T05:03:38;16.00;99.90
3912;DHT22;1971;51.778;10.330;2023-07-24T05:06:09;16.00;99.90
3912;DHT22;1971;51.778;10.330;2023-07-24T05:08:39;16.10;99.90
3912;DHT22;1971;51.778;10.330;2023-07-24T05:11:09;16.10;99.90
3912;DHT22;1971;51.778;10.330;2023-07-24T05:13:39;16.20;99.90
3912;DHT22;1971;51.778;10.330;2023-07-24T05:16:12;16.20;99.90
3912;DHT22;1971;51.778;10.330;2023-07-24T05:18:42;16.20;99.90
3912;DHT22;1971;51.778;10.330;2023-07-24T05:21:12;16.20;99.90
3912;DHT22;1971;51.778;10.330;2023-07-24T05:23:43;16.30;99.90
3912;DHT22;1971;51.778;10.330;2023-07-24T05:26:13;16.20;99.90
3912;DHT22;1971;51.778;10.330;2023-07-24T05:28:43;16.30;99.90
3912;DHT22;1971;51.778;10.330;2023-07-24T05:31:16;16.50;99.90
3912;DHT22;1971;51.778;10.330;2023-07-24T05:33:46;16.80;99.90
3912;DHT22;1971;51.778;10.330;2023-07-24T05:36:16;16.80;99.90
3912;DHT22;1971;51.778;10.330;2023-07-24T05:38:46;16.90;99.90
3912;DHT22;1971;51.778;10.330;2023-07-24T05:41:17;17.00;99.90
3912;DHT22;1971;51.778;10.330;2023-07-24T05:43:47;17.00;99.90
3912;DHT22;1971;51.778;10.330;2023-07-24T05:53:25;17.50;42.10
3912;DHT22;1971;51.778;10.330;2023-07-24T05:55:58;17.90;1.00
3912;DHT22;1971;51.778;10.330;2023-07-24T05:58:29;18.10;1.00
3912;DHT22;1971;51.778;10.330;2023-07-24T06:01:00;17.90;1.00
3912;DHT22;1971;51.778;10.330;2023-07-24T06:03:30;17.70;1.00
3912;DHT22;1971;51.778;10.330;2023-07-24T06:06:00;17.60;1.00
3912;DHT22;1971;51.778;10.330;2023-07-24T06:08:33;17.50;1.00
3912;DHT22;1971;51.778;10.330;2023-07-24T06:11:03;17.40;1.00
3912;DHT22;1971;51.778;10.330;2023-07-24T06:13:33;17.60;1.00
3912;DHT22;1971;51.778;10.330;2023-07-24T06:16:03;18.00;1.00
3912;DHT22;1971;51.778;10.330;2023-07-24T06:18:34;18.50;1.00
3912;DHT22;1971;51.778;10.330;2023-07-24T06:21:04;18.80;1.00
3912;DHT22;1971;51.778;10.330;2023-07-24T06:23:37;18.90;99.90
3912;DHT22;1971;51.778;10.330;2023-07-24T06:26:07;18.70;99.90
3912;DHT22;1971;51.778;10.330;2023-07-24T06:28:37;18.50;99.90
3912;DHT22;1971;51.778;10.330;2023-07-24T06:31:05;18.20;99.90
3912;DHT22;1971;51.778;10.330;2023-07-24T06:33:35;18.10;99.90
3912;DHT22;1971;51.778;10.330;2023-07-24T06:36:09;18.00;1.00
3912;DHT22;1971;51.778;10.330;2023-07-24T06:38:42;18.00;1.00
3912;DHT22;1971;51.778;10.330;2023-07-24T06:41:14;18.00;1.00
3912;DHT22;1971;51.778;10.330;2023-07-24T06:43:47;18.30;99.90
3912;DHT22;1971;51.778;10.330;2023-07-24T06:46:17;18.60;1.00
3912;DHT22;1971;51.778;10.330;2023-07-24T06:48:48;19.00;99.90
3912;DHT22;1971;51.778;10.330;2023-07-24T06:51:18;19.20;99.90
3912;DHT22;1971;51.778;10.330;2023-07-24T06:53:51;19.30;99.90
3912;DHT22;1971;51.778;10.330;2023-07-24T06:56:21;19.30;99.90
3912;DHT22;1971;51.778;10.330;2023-07-24T06:58:51;19.40;99.90
3912;DHT22;1971;51.778;10.330;2023-07-24T07:01:21;19.40;99.90
3912;DHT22;1971;51.778;10.330;2023-07-24T07:03:51;19.30;99.90
3912;DHT22;1971;51.778;10.330;2023-07-24T07:06:21;19.10;99.90
3912;DHT22;1971;51.778;10.330;2023-07-24T07:08:57;19.20;99.90
3912;DHT22;1971;51.778;10.330;2023-07-24T07:11:27;19.40;99.90
3912;DHT22;1971;51.778;10.330;2023-07-24T07:13:57;19.50;99.90
3912;DHT22;1971;51.778;10.330;2023-07-24T07:16:28;19.60;99.90
3912;DHT22;1971;51.778;10.330;2023-07-24T07:18:58;19.60;99.90
3912;DHT22;1971;51.778;10.330;2023-07-24T07:21:28;19.40;99.90
3912;DHT22;1971;51.778;10.330;2023-07-24T07:24:01;19.40;99.90
3912;DHT22;1971;51.778;10.330;2023-07-24T07:26:31;19.40;99.90
3912;DHT22;1971;51.778;10.330;2023-07-24T07:29:01;19.60;99.90
3912;DHT22;1971;51.778;10.330;2023-07-24T07:31:31;19.80;99.90
3912;DHT22;1971;51.778;10.330;2023-07-24T07:34:02;20.00;99.90
3912;DHT22;1971;51.778;10.330;2023-07-24T07:36:32;20.10;99.90
3912;DHT22;1971;51.778;10.330;2023-07-24T07:39:04;20.40;96.10
3912;DHT22;1971;51.778;10.330;2023-07-24T07:41:34;20.40;91.90
3912;DHT22;1971;51.778;10.330;2023-07-24T07:44:05;20.60;67.20
3912;DHT22;1971;51.778;10.330;2023-07-24T07:46:34;20.40;1.00
3912;DHT22;1971;51.778;10.330;2023-07-24T07:49:05;20.40;1.00
3912;DHT22;1971;51.778;10.330;2023-07-24T07:51:35;20.70;46.90
3912;DHT22;1971;51.778;10.330;2023-07-24T07:54:07;20.90;6.60
3912;DHT22;1971;51.778;10.330;2023-07-24T07:56:37;21.20;5.30
3912;DHT22;1971;51.778;10.330;2023-07-24T07:59:07;21.30;1.00
3912;DHT22;1971;51.778;10.330;2023-07-24T08:01:37;21.10;1.00
3912;DHT22;1971;51.778;10.330;2023-07-24T08:04:09;21.30;1.00
3912;DHT22;1971;51.778;10.330;2023-07-24T08:06:39;21.40;1.00
3912;DHT22;1971;51.778;10.330;2023-07-24T08:09:12;21.40;1.00
3912;DHT22;1971;51.778;10.330;2023-07-24T08:11:44;21.60;1.00
3912;DHT22;1971;51.778;10.330;2023-07-24T08:14:15;21.80;1.00
3912;DHT22;1971;51.778;10.330;2023-07-24T08:16:47;21.80;1.00
3912;DHT22;1971;51.778;10.330;2023-07-24T08:19:17;21.60;1.00
3912;DHT22;1971;51.778;10.330;2023-07-24T08:21:47;21.30;1.00
3912;DHT22;1971;51.778;10.330;2023-07-24T08:24:20;21.10;1.00
3912;DHT22;1971;51.778;10.330;2023-07-24T08:26:51;20.80;1.00
3912;DHT22;1971;51.778;10.330;2023-07-24T08:29:21;20.50;1.00
3912;DHT22;1971;51.778;10.330;2023-07-24T08:31:51;20.30;1.00
3912;DHT22;1971;51.778;10.330;2023-07-24T08:34:22;20.00;1.00
3912;DHT22;1971;51.778;10.330;2023-07-24T08:36:52;19.60;1.00
3912;DHT22;1971;51.778;10.330;2023-07-24T08:39:25;19.40;1.00
3912;DHT22;1971;51.778;10.330;2023-07-24T08:41:56;19.30;1.00
3912;DHT22;1971;51.778;10.330;2023-07-24T08:44:29;19.20;1.00
3912;DHT22;1971;51.778;10.330;2023-07-24T08:47:00;19.30;1.00
3912;DHT22;1971;51.778;10.330;2023-07-24T08:49:32;19.50;1.00
3912;DHT22;1971;51.778;10.330;2023-07-24T08:52:04;19.70;1.00
3912;DHT22;1971;51.778;10.330;2023-07-24T08:54:41;19.90;1.00
3912;DHT22;1971;51.778;10.330;2023-07-24T08:57:12;20.20;1.00
3912;DHT22;1971;51.778;10.330;2023-07-24T08:59:43;20.30;1.00
3912;DHT22;1971;51.778;10.330;2023-07-24T09:02:13;20.70;1.00
3912;DHT22;1971;51.778;10.330;2023-07-24T09:04:43;20.90;1.00
3912;DHT22;1971;51.778;10.330;2023-07-24T09:07:14;21.00;1.00
3912;DHT22;1971;51.778;10.330;2023-07-24T09:09:47;20.90;1.00
3912;DHT22;1971;51.778;10.330;2023-07-24T09:12:17;21.00;1.00
3912;DHT22;1971;51.778;10.330;2023-07-24T09:14:47;21.00;1.00
3912;DHT22;1971;51.778;10.330;2023-07-24T09:17:17;20.80;1.00
3912;DHT22;1971;51.778;10.330;2023-07-24T09:19:55;21.00;1.00
3912;DHT22;1971;51.778;10.330;2023-07-24T09:22:26;21.40;1.00
3912;DHT22;1971;51.778;10.330;2023-07-24T09:24:59;21.60;1.00
3912;DHT22;1971;51.778;10.330;2023-07-24T09:27:30;21.50;1.00
3912;DHT22;1971;51.778;10.330;2023-07-24T09:30:02;21.30;1.00
3912;DHT22;1971;51.778;10.330;2023-07-24T09:32:32;21.40;1.00
3912;DHT22;1971;51.778;10.330;2023-07-24T09:35:02;21.60;1.00
3912;DHT22;1971;51.778;10.330;2023-07-24T09:37:34;21.70;99.90
3912;DHT22;1971;51.778;10.330;2023-07-24T09:40:08;21.80;99.90
3912;DHT22;1971;51.778;10.330;2023-07-24T09:42:39;22.00;99.90
3912;DHT22;1971;51.778;10.330;2023-07-24T09:45:29;21.90;99.90
3912;DHT22;1971;51.778;10.330;2023-07-24T09:48:02;21.80;1.00
3912;DHT22;1971;51.778;10.330;2023-07-24T09:51:00;21.60;99.90
3912;DHT22;1971;51.778;10.330;2023-07-24T09:53:33;21.20;99.90
3912;DHT22;1971;51.778;10.330;2023-07-24T09:56:08;21.10;99.90
3912;DHT22;1971;51.778;10.330;2023-07-24T09:58:39;21.50;99.90
3912;DHT22;1971;51.778;10.330;2023-07-24T10:01:10;22.10;1.00
3912;DHT22;1971;51.778;10.330;2023-07-24T10:03:43;22.00;99.90
3912;DHT22;1971;51.778;10.330;2023-07-24T10:06:16;22.00;99.90
3912;DHT22;1971;51.778;10.330;2023-07-24T10:08:46;22.30;99.90
3912;DHT22;1971;51.778;10.330;2023-07-24T10:11:20;22.60;99.90
3912;DHT22;1971;51.778;10.330;2023-07-24T10:13:51;23.10;99.90
3912;DHT22;1971;51.778;10.330;2023-07-24T10:16:22;23.50;99.90
3912;DHT22;1971;51.778;10.330;2023-07-24T10:18:52;23.50;99.90
3912;DHT22;1971;51.778;10.330;2023-07-24T10:21:27;23.10;99.90
3912;DHT22;1971;51.778;10.330;2023-07-24T10:23:59;22.80;99.90
3912;DHT22;1971;51.778;10.330;2023-07-24T10:26:35;22.40;99.90
3912;DHT22;1971;51.778;10.330;2023-07-24T10:29:06;22.30;99.90
3912;DHT22;1971;51.778;10.330;2023-07-24T10:31:38;22.20;99.90
3912;DHT22;1971;51.778;10.330;2023-07-24T10:34:09;22.60;99.90
3912;DHT22;1971;51.778;10.330;2023-07-24T10:36:39;23.10;99.90
3912;DHT22;1971;51.778;10.330;2023-07-24T10:39:14;23.50;99.90
3912;DHT22;1971;51.778;10.330;2023-07-24T10:41:48;23.50;99.90
3912;DHT22;1971;51.778;10.330;2023-07-24T10:44:18;23.60;99.90
3912;DHT22;1971;51.778;10.330;2023-07-24T10:46:59;23.70;99.90
3912;DHT22;1971;51.778;10.330;2023-07-24T10:49:29;23.70;99.90
3912;DHT22;1971;51.778;10.330;2023-07-24T10:52:00;24.10;99.90
3912;DHT22;1971;51.778;10.330;2023-07-24T10:54:32;23.90;99.90
3912;DHT22;1971;51.778;10.330;2023-07-24T10:57:05;23.50;99.90
3912;DHT22;1971;51.778;10.330;2023-07-24T10:59:40;22.80;99.90
3912;DHT22;1971;51.778;10.330;2023-07-24T11:02:10;22.30;99.90
3912;DHT22;1971;51.778;10.330;2023-07-24T11:04:41;21.80;99.90
3912;DHT22;1971;51.778;10.330;2023-07-24T11:07:11;21.70;99.90
3912;DHT22;1971;51.778;10.330;2023-07-24T11:09:41;21.60;99.90
3912;DHT22;1971;51.778;10.330;2023-07-24T11:12:16;21.40;99.90
3912;DHT22;1971;51.778;10.330;2023-07-24T11:14:50;21.10;99.90
3912;DHT22;1971;51.778;10.330;2023-07-24T11:17:21;21.00;99.90
3912;DHT22;1971;51.778;10.330;2023-07-24T11:19:52;20.90;99.90
3912;DHT22;1971;51.778;10.330;2023-07-24T11:22:22;20.90;99.90
3912;DHT22;1971;51.778;10.330;2023-07-24T11:24:57;21.10;99.90
3912;DHT22;1971;51.778;10.330;2023-07-24T11:27:31;21.30;99.90
3912;DHT22;1971;51.778;10.330;2023-07-24T11:30:01;21.30;99.90
3912;DHT22;1971;51.778;10.330;2023-07-24T11:32:31;21.50;99.90
3912;DHT22;1971;51.778;10.330;2023-07-24T11:35:02;21.50;99.90
3912;DHT22;1971;51.778;10.330;2023-07-24T11:37:33;21.80;99.90
3912;DHT22;1971;51.778;10.330;2023-07-24T11:40:05;21.90;99.90
3912;DHT22;1971;51.778;10.330;2023-07-24T11:42:44;21.80;99.90
3912;DHT22;1971;51.778;10.330;2023-07-24T11:45:14;22.10;99.90
3912;DHT22;1971;51.778;10.330;2023-07-24T11:47:46;22.30;99.90
3912;DHT22;1971;51.778;10.330;2023-07-24T11:50:17;22.30;99.90
3912;DHT22;1971;51.778;10.330;2023-07-24T11:52:49;22.20;99.90
3912;DHT22;1971;51.778;10.330;2023-07-24T11:55:30;22.30;99.90
3912;DHT22;1971;51.778;10.330;2023-07-24T11:58:03;22.30;99.90
3912;DHT22;1971;51.778;10.330;2023-07-24T12:00:35;22.10;99.90
3912;DHT22;1971;51.778;10.330;2023-07-24T12:03:06;22.20;99.90
3912;DHT22;1971;51.778;10.330;2023-07-24T12:05:40;22.10;99.90
3912;DHT22;1971;51.778;10.330;2023-07-24T12:08:14;22.10;99.90
3912;DHT22;1971;51.778;10.330;2023-07-24T12:10:45;22.20;99.90
3912;DHT22;1971;51.778;10.330;2023-07-24T12:13:18;22.50;99.90
3912;DHT22;1971;51.778;10.330;2023-07-24T12:15:48;22.50;99.90
3912;DHT22;1971;51.778;10.330;2023-07-24T12:18:19;22.50;99.90
3912;DHT22;1971;51.778;10.330;2023-07-24T12:20:49;22.70;99.90
3912;DHT22;1971;51.778;10.330;2023-07-24T12:23:20;23.20;99.90
3912;DHT22;1971;51.778;10.330;2023-07-24T12:25:50;23.60;99.90
3912;DHT22;1971;51.778;10.330;2023-07-24T12:28:23;23.70;99.90
3912;DHT22;1971;51.778;10.330;2023-07-24T12:30:53;23.80;99.90
3912;DHT22;1971;51.778;10.330;2023-07-24T12:33:24;23.30;99.90
3912;DHT22;1971;51.778;10.330;2023-07-24T12:35:54;23.00;99.90
3912;DHT22;1971;51.778;10.330;2023-07-24T12:38:24;22.70;99.90
3912;DHT22;1971;51.778;10.330;2023-07-24T12:40:55;22.90;99.90
3912;DHT22;1971;51.778;10.330;2023-07-24T12:43:28;22.70;99.90
3912;DHT22;1971;51.778;10.330;2023-07-24T12:45:59;22.80;99.90
3912;DHT22;1971;51.778;10.330;2023-07-24T12:48:29;22.80;99.90
3912;DHT22;1971;51.778;10.330;2023-07-24T12:51:00;22.80;99.90
3912;DHT22;1971;51.778;10.330;2023-07-24T12:53:30;22.50;99.90
3912;DHT22;1971;51.778;10.330;2023-07-24T12:56:13;22.10;99.90
3912;DHT22;1971;51.778;10.330;2023-07-24T12:58:45;22.20;99.90
3912;DHT22;1971;51.778;10.330;2023-07-24T13:01:16;22.10;99.90
3912;DHT22;1971;51.778;10.330;2023-07-24T13:03:46;22.10;99.90
3912;DHT22;1971;51.778;10.330;2023-07-24T13:06:16;22.10;99.90
3912;DHT22;1971;51.778;10.330;2023-07-24T13:08:47;22.50;99.90
3912;DHT22;1971;51.778;10.330;2023-07-24T13:11:17;22.90;99.90
3912;DHT22;1971;51.778;10.330;2023-07-24T13:13:49;23.30;99.90
3912;DHT22;1971;51.778;10.330;2023-07-24T13:16:20;23.20;99.90
3912;DHT22;1971;51.778;10.330;2023-07-24T13:18:50;23.20;99.90
3912;DHT22;1971;51.778;10.330;2023-07-24T13:21:20;23.00;99.90
3912;DHT22;1971;51.778;10.330;2023-07-24T13:23:50;23.20;99.90
3912;DHT22;1971;51.778;10.330;2023-07-24T13:26:20;23.40;99.90
3912;DHT22;1971;51.778;10.330;2023-07-24T13:28:53;23.40;99.90
3912;DHT22;1971;51.778;10.330;2023-07-24T13:31:23;23.10;99.90
3912;DHT22;1971;51.778;10.330;2023-07-24T13:33:56;22.80;99.90
3912;DHT22;1971;51.778;10.330;2023-07-24T13:36:26;22.70;99.90
3912;DHT22;1971;51.778;10.330;2023-07-24T13:38:56;22.30;99.90
3912;DHT22;1971;51.778;10.330;2023-07-24T13:41:27;22.00;99.90
3912;DHT22;1971;51.778;10.330;2023-07-24T13:43:59;21.80;99.90
3912;DHT22;1971;51.778;10.330;2023-07-24T13:46:30;21.90;99.90
3912;DHT22;1971;51.778;10.330;2023-07-24T13:49:00;21.80;99.90
3912;DHT22;1971;51.778;10.330;2023-07-24T13:51:30;21.50;99.90
3912;DHT22;1971;51.778;10.330;2023-07-24T13:54:01;21.90;99.90
3912;DHT22;1971;51.778;10.330;2023-07-24T13:56:31;22.50;99.90
3912;DHT22;1971;51.778;10.330;2023-07-24T13:59:05;22.60;99.90
3912;DHT22;1971;51.778;10.330;2023-07-24T14:01:35;22.70;99.90
3912;DHT22;1971;51.778;10.330;2023-07-24T14:04:06;22.90;99.90
3912;DHT22;1971;51.778;10.330;2023-07-24T14:06:36;22.90;99.90
3912;DHT22;1971;51.778;10.330;2023-07-24T14:09:06;22.70;99.90
3912;DHT22;1971;51.778;10.330;2023-07-24T14:11:36;22.50;99.90
3912;DHT22;1971;51.778;10.330;2023-07-24T14:14:09;22.50;99.90
3912;DHT22;1971;51.778;10.330;2023-07-24T14:16:39;22.60;99.90
3912;DHT22;1971;51.778;10.330;2023-07-24T14:19:10;22.60;99.90
3912;DHT22;1971;51.778;10.330;2023-07-24T14:21:40;22.70;99.90
3912;DHT22;1971;51.778;10.330;2023-07-24T14:24:10;23.00;99.90
3912;DHT22;1971;51.778;10.330;2023-07-24T14:26:41;23.20;99.90
3912;DHT22;1971;51.778;10.330;2023-07-24T14:29:14;23.20;99.90
3912;DHT22;1971;51.778;10.330;2023-07-24T14:31:45;23.20;99.90
3912;DHT22;1971;51.778;10.330;2023-07-24T14:34:15;23.00;99.90
3912;DHT22;1971;51.778;10.330;2023-07-24T14:36:45;23.50;99.90
3912;DHT22;1971;51.778;10.330;2023-07-24T14:39:16;23.70;99.90
3912;DHT22;1971;51.778;10.330;2023-07-24T14:41:46;23.60;99.90
3912;DHT22;1971;51.778;10.330;2023-07-24T14:44:19;23.90;99.90
3912;DHT22;1971;51.778;10.330;2023-07-24T14:46:49;24.10;99.90
3912;DHT22;1971;51.778;10.330;2023-07-24T14:49:19;23.90;99.90
3912;DHT22;1971;51.778;10.330;2023-07-24T14:51:50;23.70;99.90
3912;DHT22;1971;51.778;10.330;2023-07-24T14:54:20;23.40;99.90
3912;DHT22;1971;51.778;10.330;2023-07-24T14:56:50;22.70;99.90
3912;DHT22;1971;51.778;10.330;2023-07-24T14:59:30;22.50;99.90
3912;DHT22;1971;51.778;10.330;2023-07-24T15:02:00;22.10;99.90
3912;DHT22;1971;51.778;10.330;2023-07-24T15:04:30;21.90;99.90
3912;DHT22;1971;51.778;10.330;2023-07-24T15:07:00;21.50;99.90
3912;DHT22;1971;51.778;10.330;2023-07-24T15:09:31;18.50;99.90
3912;DHT22;1971;51.778;10.330;2023-07-24T15:12:01;16.10;99.90
3912;DHT22;1971;51.778;10.330;2023-07-24T15:14:34;14.50;49.20
3912;DHT22;1971;51.778;10.330;2023-07-24T15:17:04;13.30;1.00
3912;DHT22;1971;51.778;10.330;2023-07-24T15:19:34;12.80;1.00
3912;DHT22;1971;51.778;10.330;2023-07-24T15:22:05;12.60;99.90
3912;DHT22;1971;51.778;10.330;2023-07-24T15:24:35;12.50;99.90
3912;DHT22;1971;51.778;10.330;2023-07-24T15:27:07;12.60;99.90
3912;DHT22;1971;51.778;10.330;2023-07-24T15:29:40;12.70;99.90
3912;DHT22;1971;51.778;10.330;2023-07-24T15:32:10;12.90;99.90
3912;DHT22;1971;51.778;10.330;2023-07-24T15:34:40;12.90;99.90
3912;DHT22;1971;51.778;10.330;2023-07-24T15:37:10;13.00;99.90
3912;DHT22;1971;51.778;10.330;2023-07-24T15:39:40;13.20;99.90
3912;DHT22;1971;51.778;10.330;2023-07-24T15:42:11;13.50;99.90
3912;DHT22;1971;51.778;10.330;2023-07-24T15:44:46;13.60;99.90
3912;DHT22;1971;51.778;10.330;2023-07-24T15:47:17;13.60;99.90
3912;DHT22;1971;51.778;10.330;2023-07-24T15:49:47;13.80;99.90
3912;DHT22;1971;51.778;10.330;2023-07-24T20:34:53;14.90;99.90
3912;DHT22;1971;51.778;10.330;2023-07-24T20:37:23;14.70;99.90
3912;DHT22;1971;51.778;10.330;2023-07-24T20:39:53;14.20;99.90
3912;DHT22;1971;51.778;10.330;2023-07-24T20:42:24;14.00;99.90
3912;DHT22;1971;51.778;10.330;2023-07-24T20:44:55;13.80;99.90
3912;DHT22;1971;51.778;10.330;2023-07-24T20:47:25;13.70;99.90
3912;DHT22;1971;51.778;10.330;2023-07-24T20:50:00;13.60;99.90
3912;DHT22;1971;51.778;10.330;2023-07-24T20:52:30;13.60;99.90
3912;DHT22;1971;51.778;10.330;2023-07-24T20:55:01;13.60;99.90
3912;DHT22;1971;51.778;10.330;2023-07-24T20:57:31;13.50;99.90
3912;DHT22;1971;51.778;10.330;2023-07-24T21:00:01;13.60;99.90
3912;DHT22;1971;51.778;10.330;2023-07-24T21:02:32;13.60;99.90
3912;DHT22;1971;51.778;10.330;2023-07-24T21:05:05;13.70;99.90
3912;DHT22;1971;51.778;10.330;2023-07-24T21:07:36;13.60;99.90
3912;DHT22;1971;51.778;10.330;2023-07-24T21:10:09;13.60;99.90
3912;DHT22;1971;51.778;10.330;2023-07-24T21:12:41;13.50;99.90
3912;DHT22;1971;51.778;10.330;2023-07-24T21:15:11;13.60;99.90
3912;DHT22;1971;51.778;10.330;2023-07-24T21:17:41;13.60;99.90
3912;DHT22;1971;51.778;10.330;2023-07-24T21:20:15;13.60;99.90
3912;DHT22;1971;51.778;10.330;2023-07-24T21:22:45;13.70;99.90
3912;DHT22;1971;51.778;10.330;2023-07-24T21:25:15;13.70;99.90
3912;DHT22;1971;51.778;10.330;2023-07-24T21:27:46;13.70;99.90
3912;DHT22;1971;51.778;10.330;2023-07-24T21:30:16;13.70;99.90
3912;DHT22;1971;51.778;10.330;2023-07-24T21:32:47;13.70;99.90
3912;DHT22;1971;51.778;10.330;2023-07-24T21:35:21;13.60;99.90
3912;DHT22;1971;51.778;10.330;2023-07-24T21:37:52;13.50;99.90
3912;DHT22;1971;51.778;10.330;2023-07-24T21:40:22;13.50;99.90
3912;DHT22;1971;51.778;10.330;2023-07-24T21:42:53;13.50;99.90
3912;DHT22;1971;51.778;10.330;2023-07-24T21:45:23;13.40;99.90
3912;DHT22;1971;51.778;10.330;2023-07-24T21:47:53;13.40;99.90
3912;DHT22;1971;51.778;10.330;2023-07-24T21:50:26;13.40;99.90
3912;DHT22;1971;51.778;10.330;2023-07-24T21:52:56;13.40;99.90
3912;DHT22;1971;51.778;10.330;2023-07-24T21:55:28;13.40;99.90
3912;DHT22;1971;51.778;10.330;2023-07-24T21:57:58;13.40;99.90
3912;DHT22;1971;51.778;10.330;2023-07-24T22:00:29;13.50;99.90
3912;DHT22;1971;51.778;10.330;2023-07-24T22:02:59;13.50;99.90
3912;DHT22;1971;51.778;10.330;2023-07-24T22:05:32;13.60;99.90
3912;DHT22;1971;51.778;10.330;2023-07-24T22:08:03;13.50;99.90
3912;DHT22;1971;51.778;10.330;2023-07-24T22:10:34;13.60;99.90
3912;DHT22;1971;51.778;10.330;2023-07-24T22:13:05;13.60;99.90
3912;DHT22;1971;51.778;10.330;2023-07-24T22:15:35;13.60;99.90
3912;DHT22;1971;51.778;10.330;2023-07-24T22:18:05;13.70;99.90
3912;DHT22;1971;51.778;10.330;2023-07-24T22:20:39;13.70;99.90
3912;DHT22;1971;51.778;10.330;2023-07-24T22:23:09;13.70;99.90
3912;DHT22;1971;51.778;10.330;2023-07-24T22:25:40;13.80;99.90
3912;DHT22;1971;51.778;10.330;2023-07-24T22:28:11;13.70;99.90
3912;DHT22;1971;51.778;10.330;2023-07-24T22:30:41;13.80;99.90
3912;DHT22;1971;51.778;10.330;2023-07-24T22:33:11;13.80;99.90
3912;DHT22;1971;51.778;10.330;2023-07-24T22:35:44;14.00;99.90
3912;DHT22;1971;51.778;10.330;2023-07-24T22:38:15;14.10;99.90
3912;DHT22;1971;51.778;10.330;2023-07-24T22:40:46;14.10;99.90
3912;DHT22;1971;51.778;10.330;2023-07-24T22:43:16;14.10;99.90
3912;DHT22;1971;51.778;10.330;2023-07-24T22:45:46;14.10;99.90
3912;DHT22;1971;51.778;10.330;2023-07-24T22:48:17;14.00;99.90
3912;DHT22;1971;51.778;10.330;2023-07-24T22:50:50;14.00;99.90
3912;DHT22;1971;51.778;10.330;2023-07-24T22:53:20;14.00;99.90
3912;DHT22;1971;51.778;10.330;2023-07-24T22:55:50;14.00;99.90
3912;DHT22;1971;51.778;10.330;2023-07-24T22:58:21;14.00;99.90
3912;DHT22;1971;51.778;10.330;2023-07-24T23:00:51;14.00;99.90
3912;DHT22;1971;51.778;10.330;2023-07-24T23:03:22;14.00;99.90
3912;DHT22;1971;51.778;10.330;2023-07-24T23:05:55;14.10;99.90
3912;DHT22;1971;51.778;10.330;2023-07-24T23:08:25;14.10;99.90
3912;DHT22;1971;51.778;10.330;2023-07-24T23:10:56;14.10;99.90
3912;DHT22;1971;51.778;10.330;2023-07-24T23:13:26;14.10;99.90
3912;DHT22;1971;51.778;10.330;2023-07-24T23:15:59;14.00;99.90
3912;DHT22;1971;51.778;10.330;2023-07-24T23:18:29;13.90;99.90
3912;DHT22;1971;51.778;10.330;2023-07-24T23:21:03;13.80;99.90
3912;DHT22;1971;51.778;10.330;2023-07-24T23:23:33;13.60;99.90
3912;DHT22;1971;51.778;10.330;2023-07-24T23:26:04;13.50;99.90
3912;DHT22;1971;51.778;10.330;2023-07-24T23:28:34;13.50;99.90
3912;DHT22;1971;51.778;10.330;2023-07-24T23:31:05;13.50;99.90
3912;DHT22;1971;51.778;10.330;2023-07-24T23:33:36;13.40;99.90
3912;DHT22;1971;51.778;10.330;2023-07-24T23:36:09;13.30;99.90
3912;DHT22;1971;51.778;10.330;2023-07-24T23:38:39;13.30;99.90
3912;DHT22;1971;51.778;10.330;2023-07-24T23:41:10;13.30;99.90
3912;DHT22;1971;51.778;10.330;2023-07-24T23:43:40;13.30;99.90
3912;DHT22;1971;51.778;10.330;2023-07-24T23:46:11;13.20;99.90